createdAt,value
2022-11-24T00:00:53.257Z,10.80
2022-11-24T00:03:20.497Z,10.90
2022-11-24T00:05:47.431Z,10.90
2022-11-24T00:08:14.868Z,10.90
2022-11-24T00:10:41.713Z,10.90
2022-11-24T00:13:08.568Z,10.90
2022-11-24T00:15:35.410Z,10.90
2022-11-24T00:18:02.302Z,10.90
2022-11-24T00:20:29.126Z,11.00
2022-11-24T00:22:56.169Z,10.90
2022-11-24T00:25:23.144Z,11.00
2022-11-24T00:27:50.033Z,11.00
2022-11-24T00:30:16.952Z,11.10
2022-11-24T00:32:43.826Z,11.10
2022-11-24T00:35:10.711Z,11.10
2022-11-24T00:37:37.575Z,11.10
2022-11-24T00:40:04.824Z,11.20
2022-11-24T00:42:31.676Z,11.20
2022-11-24T00:44:58.512Z,11.20
2022-11-24T00:47:25.436Z,11.20
2022-11-24T00:49:52.316Z,11.30
2022-11-24T00:52:19.154Z,11.20
2022-11-24T00:54:45.984Z,11.30
2022-11-24T00:57:12.897Z,11.30
2022-11-24T00:59:39.744Z,11.30
2022-11-24T01:02:06.622Z,11.30
2022-11-24T01:04:33.759Z,11.30
2022-11-24T01:07:00.786Z,11.40
2022-11-24T01:09:27.624Z,11.30
2022-11-24T01:12:04.333Z,11.30
2022-11-24T01:14:33.448Z,11.30
2022-11-24T01:17:00.583Z,11.30
2022-11-24T01:19:27.504Z,11.20
2022-11-24T01:21:54.411Z,11.20
2022-11-24T01:24:21.367Z,11.20
2022-11-24T01:26:48.209Z,11.20
2022-11-24T01:29:15.199Z,11.10
2022-11-24T01:31:42.134Z,11.10
2022-11-24T01:34:09.009Z,11.10
2022-11-24T01:36:35.952Z,11.10
2022-11-24T01:39:02.875Z,11.10
2022-11-24T01:41:29.923Z,11.10
2022-11-24T01:43:57.288Z,11.10
2022-11-24T01:46:29.509Z,11.10
2022-11-24T01:49:05.286Z,11.10
2022-11-24T01:51:36.033Z,11.10
2022-11-24T01:54:16.572Z,11.00
2022-11-24T01:56:47.948Z,11.00
2022-11-24T01:59:15.914Z,11.00
2022-11-24T02:01:43.297Z,11.00
2022-11-24T02:04:15.778Z,11.00
2022-11-24T02:06:44.875Z,11.00
2022-11-24T02:09:22.100Z,11.00
2022-11-24T02:11:49.031Z,11.00
2022-11-24T02:14:18.321Z,10.90
2022-11-24T02:16:49.491Z,11.00
2022-11-24T02:19:25.879Z,11.00
2022-11-24T02:21:53.475Z,11.00
2022-11-24T02:24:40.149Z,10.90
2022-11-24T02:27:07.284Z,10.90
2022-11-24T02:29:34.220Z,10.90
2022-11-24T02:32:04.816Z,10.90
2022-11-24T02:34:31.895Z,10.80
2022-11-24T02:36:59.029Z,10.80
2022-11-24T02:39:25.866Z,10.90
2022-11-24T02:41:56.934Z,10.90
2022-11-24T02:44:28.754Z,10.90
2022-11-24T02:47:10.586Z,10.80
2022-11-24T02:49:37.943Z,10.80
2022-11-24T02:52:05.855Z,10.80
2022-11-24T02:54:33.272Z,10.80
2022-11-24T02:57:00.472Z,10.80
2022-11-24T02:59:27.329Z,10.80
2022-11-24T03:01:54.233Z,10.80
2022-11-24T03:04:21.137Z,10.80
2022-11-24T03:06:48.015Z,10.70
2022-11-24T03:09:14.985Z,10.70
2022-11-24T03:11:41.902Z,10.70
2022-11-24T03:14:09.084Z,10.70
2022-11-24T03:16:36.074Z,10.70
2022-11-24T03:19:03.384Z,10.70
2022-11-24T03:21:30.271Z,10.70
2022-11-24T03:23:57.256Z,10.70
2022-11-24T03:26:25.922Z,10.70
2022-11-24T03:28:56.427Z,10.70
2022-11-24T03:31:24.188Z,10.70
2022-11-24T03:33:51.618Z,10.70
2022-11-24T03:36:18.869Z,10.60
2022-11-24T03:38:46.017Z,10.60
2022-11-24T03:41:12.974Z,10.60
2022-11-24T03:43:43.704Z,10.60
2022-11-24T03:46:12.450Z,10.60
2022-11-24T03:48:39.632Z,10.60
2022-11-24T03:51:06.647Z,10.70
2022-11-24T03:53:34.055Z,10.70
2022-11-24T03:56:02.128Z,10.70
2022-11-24T03:58:29.621Z,10.70
2022-11-24T04:00:57.535Z,10.60
2022-11-24T04:03:24.580Z,10.60
2022-11-24T04:05:51.564Z,10.60
2022-11-24T04:08:19.061Z,10.60
2022-11-24T04:10:50.486Z,10.60
2022-11-24T04:13:19.146Z,10.60
2022-11-24T04:15:46.264Z,10.60
2022-11-24T04:18:13.758Z,10.60
2022-11-24T04:20:41.753Z,10.60
2022-11-24T04:23:09.680Z,10.60
2022-11-24T04:25:36.888Z,10.60
2022-11-24T04:28:04.355Z,10.60
2022-11-24T04:30:31.411Z,10.60
2022-11-24T04:32:59.022Z,10.60
2022-11-24T04:35:25.888Z,10.60
2022-11-24T04:37:52.800Z,10.60
2022-11-24T04:40:20.411Z,10.60
2022-11-24T04:42:55.285Z,10.60
2022-11-24T04:45:23.020Z,10.60
2022-11-24T04:47:49.863Z,10.50
2022-11-24T04:50:17.293Z,10.50
2022-11-24T04:52:44.160Z,10.50
2022-11-24T04:55:11.329Z,10.50
2022-11-24T04:57:38.377Z,10.50
2022-11-24T05:00:05.985Z,10.50
2022-11-24T05:02:32.865Z,10.50
2022-11-24T05:04:59.745Z,10.50
2022-11-24T05:07:26.598Z,10.50
2022-11-24T05:10:12.219Z,10.40
2022-11-24T05:12:39.630Z,10.40
2022-11-24T05:15:07.743Z,10.40
2022-11-24T05:17:37.467Z,10.40
2022-11-24T05:20:06.642Z,10.50
2022-11-24T05:22:33.565Z,10.50
2022-11-24T05:25:00.370Z,10.50
2022-11-24T05:27:27.241Z,10.50
2022-11-24T05:29:54.068Z,10.50
2022-11-24T05:32:20.891Z,10.50
2022-11-24T05:34:48.092Z,10.50
2022-11-24T05:37:15.052Z,10.40
2022-11-24T05:39:41.899Z,10.40
2022-11-24T05:42:27.806Z,10.40
2022-11-24T05:44:54.750Z,10.40
2022-11-24T05:47:21.879Z,10.40
2022-11-24T05:49:48.706Z,10.40
2022-11-24T05:52:16.287Z,10.40
2022-11-24T05:54:43.271Z,10.40
2022-11-24T05:57:10.130Z,10.40
2022-11-24T05:59:36.953Z,10.40
2022-11-24T06:02:04.013Z,10.40
2022-11-24T06:04:31.641Z,10.40
2022-11-24T06:06:58.640Z,10.40
2022-11-24T06:09:25.478Z,10.40
2022-11-24T06:11:52.562Z,10.40
2022-11-24T06:14:19.387Z,10.40
2022-11-24T06:16:46.284Z,10.30
2022-11-24T06:19:13.281Z,10.30
2022-11-24T06:21:40.081Z,10.30
2022-11-24T06:24:07.402Z,10.30
2022-11-24T06:26:34.331Z,10.30
2022-11-24T06:29:01.421Z,10.30
2022-11-24T06:31:28.289Z,10.30
2022-11-24T06:33:55.099Z,10.30
2022-11-24T06:36:21.940Z,10.30
2022-11-24T06:38:48.772Z,10.30
2022-11-24T06:41:16.369Z,10.30
2022-11-24T06:43:43.853Z,10.20
2022-11-24T06:46:11.267Z,10.20
2022-11-24T06:48:38.606Z,10.20
2022-11-24T06:51:10.655Z,10.20
2022-11-24T06:53:38.600Z,10.20
2022-11-24T06:56:13.832Z,10.20
2022-11-24T06:58:45.067Z,10.20
2022-11-24T07:01:16.493Z,10.20
2022-11-24T07:03:43.520Z,10.10
2022-11-24T07:06:10.415Z,10.10
2022-11-24T07:08:37.356Z,10.10
2022-11-24T07:11:06.183Z,10.10
2022-11-24T07:13:33.170Z,10.00
2022-11-24T07:16:00.943Z,10.00
2022-11-24T07:18:27.852Z,10.00
2022-11-24T07:20:54.668Z,10.10
2022-11-24T07:23:21.471Z,10.00
2022-11-24T07:25:48.306Z,10.00
2022-11-24T07:28:15.125Z,10.10
2022-11-24T07:30:41.902Z,10.10
2022-11-24T07:33:08.714Z,10.10
2022-11-24T07:35:35.523Z,10.10
2022-11-24T07:38:02.352Z,10.20
2022-11-24T07:40:29.141Z,10.10
2022-11-24T07:42:55.949Z,10.10
2022-11-24T07:45:22.774Z,10.10
2022-11-24T07:47:49.573Z,10.10
2022-11-24T07:50:16.818Z,10.10
2022-11-24T07:52:43.679Z,10.10
2022-11-24T07:55:10.883Z,10.10
2022-11-24T07:57:37.724Z,10.10
2022-11-24T08:00:06.082Z,10.20
2022-11-24T08:02:33.731Z,10.20
2022-11-24T08:05:00.548Z,10.20
2022-11-24T08:07:27.469Z,10.20
2022-11-24T08:09:54.322Z,10.30
2022-11-24T08:12:24.127Z,10.20
2022-11-24T08:14:51.351Z,10.20
2022-11-24T08:17:18.621Z,10.20
2022-11-24T08:19:45.865Z,10.30
2022-11-24T08:22:12.762Z,10.30
2022-11-24T08:24:46.223Z,10.30
2022-11-24T08:27:14.025Z,10.30
2022-11-24T08:29:41.013Z,10.30
2022-11-24T08:32:08.516Z,10.40
2022-11-24T08:34:36.097Z,10.40
2022-11-24T08:37:06.451Z,10.40
2022-11-24T08:39:33.854Z,10.40
2022-11-24T08:42:00.661Z,10.50
2022-11-24T08:44:28.870Z,10.50
2022-11-24T08:46:56.025Z,10.50
2022-11-24T08:49:22.837Z,10.50
2022-11-24T08:51:51.346Z,10.50
2022-11-24T08:54:18.937Z,10.50
2022-11-24T08:56:46.651Z,10.60
2022-11-24T08:59:14.227Z,10.60
2022-11-24T09:01:42.144Z,10.60
2022-11-24T09:04:09.038Z,10.70
2022-11-24T09:06:35.887Z,10.60
2022-11-24T09:09:02.686Z,10.70
2022-11-24T09:11:30.777Z,10.70
2022-11-24T09:13:57.858Z,10.70
2022-11-24T09:16:27.295Z,10.80
2022-11-24T09:19:02.365Z,10.80
2022-11-24T09:21:30.546Z,10.80
2022-11-24T09:23:57.785Z,10.80
2022-11-24T09:26:29.895Z,10.80
2022-11-24T09:28:58.436Z,10.90
2022-11-24T09:31:28.396Z,10.90
2022-11-24T09:33:55.846Z,10.90
2022-11-24T09:36:23.992Z,10.90
2022-11-24T09:38:50.817Z,11.00
2022-11-24T09:41:17.581Z,11.00
2022-11-24T09:44:02.632Z,11.00
2022-11-24T09:46:36.439Z,11.00
2022-11-24T09:49:08.029Z,11.00
2022-11-24T09:51:37.220Z,11.00
2022-11-24T09:54:13.445Z,11.10
2022-11-24T09:56:42.902Z,11.10
2022-11-24T09:59:17.125Z,11.10
2022-11-24T10:01:45.936Z,11.10
2022-11-24T10:04:42.878Z,11.20
2022-11-24T10:07:24.999Z,11.20
2022-11-24T10:10:06.792Z,11.30
2022-11-24T10:13:01.186Z,11.30
2022-11-24T10:15:43.976Z,11.30
2022-11-24T10:18:48.275Z,11.30
2022-11-24T10:21:20.957Z,11.40
2022-11-24T10:24:22.806Z,11.40
2022-11-24T10:27:10.360Z,11.40
2022-11-24T10:29:40.904Z,11.50
2022-11-24T10:32:25.675Z,11.50
2022-11-24T10:34:56.045Z,11.50
2022-11-24T10:37:33.689Z,11.60
2022-11-24T10:40:56.124Z,11.60
2022-11-24T10:43:19.211Z,11.60
2022-11-24T10:45:46.168Z,11.60
2022-11-24T10:48:24.203Z,11.70
2022-11-24T10:50:57.040Z,11.70
2022-11-24T10:53:29.484Z,11.70
2022-11-24T10:55:56.346Z,11.80
2022-11-24T10:58:34.437Z,11.80
2022-11-24T11:01:13.378Z,11.80
2022-11-24T11:03:48.012Z,11.90
2022-11-24T11:06:20.954Z,11.90
2022-11-24T11:08:47.785Z,11.90
2022-11-24T11:11:21.983Z,11.90
2022-11-24T11:14:01.691Z,12.00
2022-11-24T11:16:40.873Z,12.00
2022-11-24T11:19:53.180Z,12.00
2022-11-24T11:22:29.074Z,12.00
2022-11-24T11:25:08.073Z,12.00
2022-11-24T11:27:34.911Z,12.00
2022-11-24T11:36:11.344Z,12.10
2022-11-24T11:38:40.040Z,12.10
2022-11-24T11:41:14.130Z,12.10
2022-11-24T11:43:41.675Z,12.20
2022-11-24T11:46:18.142Z,12.20
2022-11-24T11:48:47.041Z,12.20
2022-11-24T11:51:23.910Z,12.20
2022-11-24T11:54:21.127Z,12.30
2022-11-24T11:56:49.543Z,12.30
2022-11-24T11:59:22.313Z,12.30
2022-11-24T12:02:10.800Z,12.30
2022-11-24T12:04:37.630Z,12.40
2022-11-24T12:07:22.935Z,12.40
2022-11-24T12:10:02.016Z,12.50
2022-11-24T12:12:38.260Z,12.50
2022-11-24T12:15:20.182Z,12.50
2022-11-24T12:18:26.834Z,12.50
2022-11-24T12:21:26.400Z,12.50
2022-11-24T12:24:22.088Z,12.50
2022-11-24T12:27:17.975Z,12.50
2022-11-24T12:29:52.174Z,12.60
2022-11-24T12:32:47.156Z,12.60
2022-11-24T12:35:17.105Z,12.60
2022-11-24T12:38:01.161Z,12.60
2022-11-24T12:40:46.909Z,12.60
2022-11-24T12:43:20.023Z,12.60
2022-11-24T12:46:17.925Z,12.60
2022-11-24T12:49:00.569Z,12.60
2022-11-24T12:51:38.155Z,12.60
2022-11-24T12:54:10.480Z,12.60
2022-11-24T12:56:41.549Z,12.60
2022-11-24T12:59:18.079Z,12.60
2022-11-24T13:02:09.045Z,12.60
2022-11-24T13:05:03.551Z,12.60
2022-11-24T13:07:46.770Z,12.60
2022-11-24T13:10:46.893Z,12.60
2022-11-24T13:13:14.516Z,12.60
2022-11-24T13:16:35.302Z,12.70
2022-11-24T13:18:52.873Z,12.70
2022-11-24T13:21:50.301Z,12.70
2022-11-24T13:24:17.846Z,12.70
2022-11-24T13:26:51.239Z,12.70
2022-11-24T13:29:41.013Z,12.70
2022-11-24T13:32:14.598Z,12.70
2022-11-24T13:34:42.789Z,12.70
2022-11-24T13:37:35.422Z,12.70
2022-11-24T13:40:23.154Z,12.70
2022-11-24T13:42:56.416Z,12.70
2022-11-24T13:45:41.853Z,12.70
2022-11-24T13:48:21.653Z,12.70
2022-11-24T13:50:55.052Z,12.70
2022-11-24T13:53:40.649Z,12.70
2022-11-24T13:56:13.764Z,12.80
2022-11-24T13:58:48.046Z,12.70
2022-11-24T14:01:28.824Z,12.70
2022-11-24T14:06:52.599Z,12.80
2022-11-24T14:09:26.968Z,12.80
2022-11-24T14:12:14.109Z,12.80
2022-11-24T14:14:42.352Z,12.80
2022-11-24T14:17:15.048Z,12.80
2022-11-24T14:19:43.499Z,12.80
2022-11-24T14:22:20.182Z,12.80
2022-11-24T14:25:01.582Z,12.80
2022-11-24T14:27:31.241Z,12.90
2022-11-24T14:30:06.184Z,12.90
2022-11-24T14:32:33.031Z,12.90
2022-11-24T14:34:59.993Z,12.90
2022-11-24T14:37:27.007Z,12.90
2022-11-24T14:39:53.818Z,12.90
2022-11-24T14:42:23.922Z,12.90
2022-11-24T14:45:03.878Z,12.90
2022-11-24T14:47:33.702Z,12.90
2022-11-24T14:50:16.546Z,12.90
2022-11-24T14:52:54.777Z,12.80
2022-11-24T14:55:31.455Z,12.80
2022-11-24T14:57:59.541Z,12.80
2022-11-24T15:00:33.451Z,12.80
2022-11-24T15:03:05.885Z,12.80
2022-11-24T15:05:59.551Z,12.80
2022-11-24T15:08:42.719Z,12.80
2022-11-24T15:11:09.568Z,12.80
2022-11-24T15:13:40.062Z,12.80
2022-11-24T15:16:14.516Z,12.80
2022-11-24T15:18:47.389Z,12.80
2022-11-24T15:21:19.153Z,12.80
2022-11-24T15:24:18.509Z,12.80
2022-11-24T15:26:45.999Z,12.80
2022-11-24T15:29:13.131Z,12.70
2022-11-24T15:31:41.304Z,12.80
2022-11-24T15:34:12.663Z,12.80
2022-11-24T15:36:39.470Z,12.80
2022-11-24T15:39:06.338Z,12.80
2022-11-24T15:41:33.899Z,12.80
2022-11-24T15:44:00.875Z,12.80
2022-11-24T15:46:29.189Z,12.80
2022-11-24T15:48:57.230Z,12.80
2022-11-24T15:51:26.194Z,12.90
2022-11-24T15:54:00.276Z,12.90
2022-11-24T15:56:34.313Z,12.90
2022-11-24T15:59:02.061Z,12.90
2022-11-24T16:01:33.774Z,12.90
2022-11-24T16:04:02.168Z,12.90
2022-11-24T16:06:28.971Z,12.90
2022-11-24T16:08:57.774Z,12.90
2022-11-24T16:11:24.707Z,12.90
2022-11-24T16:13:53.771Z,12.90
2022-11-24T16:16:23.040Z,12.90
2022-11-24T16:18:50.052Z,12.90
2022-11-24T16:21:17.035Z,12.90
2022-11-24T16:23:43.870Z,12.80
2022-11-24T16:26:11.216Z,12.90
2022-11-24T16:28:38.062Z,12.90
2022-11-24T16:31:05.009Z,12.90
2022-11-24T16:33:32.108Z,12.90
2022-11-24T16:35:59.013Z,12.90
2022-11-24T16:38:25.926Z,12.90
2022-11-24T16:40:54.401Z,12.80
2022-11-24T16:43:21.527Z,12.90
2022-11-24T16:46:09.229Z,12.90
2022-11-24T16:48:36.929Z,12.90
2022-11-24T16:51:07.794Z,12.90
2022-11-24T16:53:34.810Z,12.90
2022-11-24T16:56:01.845Z,12.90
2022-11-24T16:58:28.911Z,12.90
2022-11-24T17:00:55.771Z,13.00
2022-11-24T17:03:22.702Z,12.90
2022-11-24T17:05:59.574Z,13.00
2022-11-24T17:08:26.506Z,13.00
2022-11-24T17:10:53.330Z,13.00
2022-11-24T17:13:20.120Z,13.00
2022-11-24T17:15:52.629Z,13.00
2022-11-24T17:18:25.229Z,13.00
2022-11-24T17:20:52.689Z,13.00
2022-11-24T17:23:19.805Z,13.00
2022-11-24T17:25:48.452Z,12.90
2022-11-24T17:28:15.247Z,12.90
2022-11-24T17:30:42.097Z,12.90
2022-11-24T17:33:09.013Z,12.90
2022-11-24T17:35:36.011Z,12.90
2022-11-24T17:38:03.483Z,12.90
2022-11-24T17:40:30.383Z,13.00
2022-11-24T17:43:00.899Z,12.90
2022-11-24T17:45:29.465Z,12.90
2022-11-24T17:47:58.621Z,12.90
2022-11-24T17:50:26.507Z,12.90
2022-11-24T17:52:54.037Z,13.00
2022-11-24T17:55:21.362Z,12.90
2022-11-24T17:57:48.238Z,12.90
2022-11-24T18:00:15.505Z,12.90
2022-11-24T18:02:42.390Z,13.00
2022-11-24T18:05:09.420Z,13.00
2022-11-24T18:07:37.090Z,13.00
2022-11-24T18:10:04.464Z,13.00
2022-11-24T18:12:32.130Z,13.00
2022-11-24T18:14:59.072Z,13.00
2022-11-24T18:17:25.946Z,13.00
2022-11-24T18:19:52.745Z,13.00
2022-11-24T18:22:36.648Z,13.00
2022-11-24T18:25:07.134Z,13.00
2022-11-24T18:27:33.988Z,13.00
2022-11-24T18:30:00.815Z,13.00
2022-11-24T18:32:27.624Z,13.00
2022-11-24T18:34:54.664Z,13.00
2022-11-24T18:37:21.511Z,13.00
2022-11-24T18:39:48.315Z,13.00
2022-11-24T18:42:15.759Z,13.00
2022-11-24T18:44:42.813Z,12.90
2022-11-24T18:47:09.613Z,12.90
2022-11-24T18:49:36.435Z,12.90
2022-11-24T18:52:03.446Z,12.90
2022-11-24T18:54:30.246Z,12.90
2022-11-24T18:57:01.842Z,12.90
2022-11-24T18:59:30.203Z,12.90
2022-11-24T19:01:58.122Z,12.90
2022-11-24T19:04:26.330Z,12.90
2022-11-24T19:06:53.174Z,12.80
2022-11-24T19:09:22.624Z,12.90
2022-11-24T19:11:49.554Z,12.80
2022-11-24T19:14:18.341Z,12.80
2022-11-24T19:16:47.732Z,12.80
2022-11-24T19:19:15.168Z,12.90
2022-11-24T19:21:42.027Z,12.80
2022-11-24T19:24:10.329Z,12.80
2022-11-24T19:26:37.721Z,12.80
2022-11-24T19:29:05.712Z,12.80
2022-11-24T19:31:32.911Z,12.80
2022-11-24T19:34:00.058Z,12.80
2022-11-24T19:36:26.969Z,12.90
2022-11-24T19:38:56.438Z,12.80
2022-11-24T19:41:27.186Z,12.80
2022-11-24T19:43:54.845Z,12.90
2022-11-24T19:46:23.073Z,12.90
2022-11-24T19:48:54.128Z,12.80
2022-11-24T19:51:25.427Z,12.90
2022-11-24T19:53:52.377Z,12.90
2022-11-24T19:56:21.380Z,12.90
2022-11-24T19:58:49.455Z,12.80
2022-11-24T20:01:18.712Z,12.90
2022-11-24T20:03:49.369Z,12.90
2022-11-24T20:06:16.623Z,12.90
2022-11-24T20:08:43.612Z,12.90
2022-11-24T20:11:12.606Z,12.90
2022-11-24T20:13:42.103Z,12.90
2022-11-24T20:16:13.971Z,12.90
2022-11-24T20:18:43.999Z,12.90
2022-11-24T20:21:21.555Z,12.90
2022-11-24T20:24:00.195Z,12.90
2022-11-24T20:26:30.347Z,12.90
2022-11-24T20:28:58.909Z,12.90
2022-11-24T20:31:30.926Z,12.90
2022-11-24T20:33:57.847Z,12.90
2022-11-24T20:36:29.986Z,12.90
2022-11-24T20:38:59.698Z,12.90
2022-11-24T20:41:29.694Z,12.90
2022-11-24T20:44:00.019Z,12.80
2022-11-24T20:46:30.131Z,12.80
2022-11-24T20:48:57.401Z,12.80
2022-11-24T20:51:29.763Z,12.80
2022-11-24T20:53:59.454Z,12.80
2022-11-24T20:56:31.635Z,12.80
2022-11-24T20:58:59.130Z,12.80
2022-11-24T21:01:29.305Z,12.80
2022-11-24T21:03:58.510Z,12.80
2022-11-24T21:06:26.462Z,12.70
2022-11-24T21:08:53.317Z,12.80
2022-11-24T21:11:22.087Z,12.70
2022-11-24T21:13:49.695Z,12.70
2022-11-24T21:16:22.249Z,12.70
2022-11-24T21:18:51.147Z,12.70
2022-11-24T21:21:19.228Z,12.70
2022-11-24T21:23:47.032Z,12.70
2022-11-24T21:26:16.926Z,12.60
2022-11-24T21:28:45.739Z,12.70
2022-11-24T21:31:19.322Z,12.60
2022-11-24T21:33:51.200Z,12.70
2022-11-24T21:36:27.126Z,12.70
2022-11-24T21:38:54.926Z,12.70
2022-11-24T21:41:22.520Z,12.70
2022-11-24T21:43:50.142Z,12.70
2022-11-24T21:46:17.545Z,12.70
2022-11-24T21:48:44.904Z,12.70
2022-11-24T21:51:16.680Z,12.70
2022-11-24T21:53:44.745Z,12.60
2022-11-24T21:56:15.257Z,12.70
2022-11-24T21:58:51.015Z,12.60
2022-11-24T22:01:20.311Z,12.60
2022-11-24T22:03:47.568Z,12.60
2022-11-24T22:06:15.402Z,12.60
2022-11-24T22:08:42.259Z,12.60
2022-11-24T22:11:13.630Z,12.60
2022-11-24T22:13:41.337Z,12.70
2022-11-24T22:16:10.524Z,12.70
2022-11-24T22:18:40.052Z,12.70
2022-11-24T22:21:10.126Z,12.70
2022-11-24T22:23:37.345Z,12.70
2022-11-24T22:26:22.913Z,12.70
2022-11-24T22:28:49.820Z,12.70
2022-11-24T22:31:19.416Z,12.70
2022-11-24T22:33:47.173Z,12.70
2022-11-24T22:36:15.537Z,12.70
2022-11-24T22:38:43.124Z,12.70
2022-11-24T22:41:19.396Z,12.70
2022-11-24T22:43:46.890Z,12.70
2022-11-24T22:46:16.121Z,12.80
2022-11-24T22:48:44.125Z,12.70
2022-11-24T22:51:14.200Z,12.80
2022-11-24T22:53:41.340Z,12.70
2022-11-24T22:56:10.636Z,12.70
2022-11-24T22:58:39.061Z,12.60
2022-11-24T23:01:08.881Z,12.60
2022-11-24T23:03:36.573Z,12.60
2022-11-24T23:06:05.774Z,12.50
2022-11-24T23:08:34.283Z,12.50
2022-11-24T23:11:03.485Z,12.50
2022-11-24T23:13:30.522Z,12.50
2022-11-24T23:16:05.994Z,12.50
2022-11-24T23:18:33.523Z,12.50
2022-11-24T23:21:11.882Z,12.50
2022-11-24T23:23:39.917Z,12.50
2022-11-24T23:26:09.509Z,12.50
2022-11-24T23:28:36.707Z,12.50
2022-11-24T23:31:05.978Z,12.50
2022-11-24T23:33:33.389Z,12.40
2022-11-24T23:36:02.274Z,12.40
2022-11-24T23:38:32.555Z,12.40
2022-11-24T23:41:01.203Z,12.40
2022-11-24T23:43:28.012Z,12.40
2022-11-24T23:45:54.824Z,12.40
2022-11-24T23:48:21.719Z,12.40
2022-11-24T23:50:48.606Z,12.40
2022-11-24T23:53:15.358Z,12.30
2022-11-24T23:55:42.164Z,12.30
2022-11-24T23:58:09.096Z,12.30
